Vliegveldwaarnemingen Nederland - (AUTO) METAR

Luchtvaartmeteorologische informatie voor operationeel gebruik en vluchtvoorbereiding is beschikbaar op www.luchtvaartmeteo.nl.

ZCZC
SA210025 EHKD     DE KOOY/DE KOOY   NLD   1 m.
METAR EHKD 210025Z AUTO 22007KT 9999 OVC047 14/12 Q1029 BLU=

ZCZC
SA210025 EHFD     F3-FB-1   NLD   50 m.
METAR EHFD 210025Z AUTO 23014KT //// // BKN027/// 14/12 Q1026 RE//
W///H///=

ZCZC
SA210025 EHAM     AMSTERDAM/SCHIPHOL   NLD   -3 m.
METAR EHAM 210025Z 16004KT CAVOK 11/10 Q1029 NOSIG=

ZCZC
SA210025 EHVL     VLIELAND   NLD   10 m.
METAR EHVL 210025Z AUTO 23012KT 9999 OVC049 14/12 Q1028 BLU=

ZCZC
SA210025 EHJR     K13-A   NLD   37 m.
METAR EHJR 210025Z AUTO 24013KT //// // ///////// 16/12 Q1028 RE//
W16/H7=

ZCZC
SA210025 EHLW     LEEUWARDEN/LEEUWARDEN   NLD   1 m.
METAR EHLW 210025Z AUTO 18005KT 150V220 3200 BR OVC046 10/10 Q1028 YLO=

ZCZC
SA210025 EHDL     ARNHEM/DEELEN   NLD   48 m.
METAR EHDL 210025Z AUTO 22002KT 9999 OVC046 08/08 Q1030 BLU=

ZCZC
SA210025 EHGG     GRONINGEN/EELDE   NLD   5 m.
METAR EHGG 210025Z AUTO 24004KT 210V270 8000 BKN038 OVC043 12/10
Q1029=

ZCZC
SA210025 EHSC     LICHTEILAND GOEREE   NLD   22 m.
METAR EHSC 210025Z AUTO 21012KT 9999 ///////// 14/11 Q1029 W16/H3=

ZCZC
SA210025 EHSA     EURO PLATFORM   NLD   19 m.
METAR EHSA 210025Z AUTO 21012KT 9999 ///////// 15/11 Q1029 W15/H3=

ZCZC
SA210025 EHWO     WOENSDRECHT/WOENSDRECHT   NLD   19 m.
METAR EHWO 210025Z AUTO VRB01KT 9999 NCD 03/03 Q1030 BLU=

ZCZC
SA210025 EHRD     ROTTERDAM/THE HAGUE AIRPORT   NLD   -5 m.
METAR EHRD 210025Z AUTO 20004KT 9000 NSC 12/10 Q1030 NOSIG=

ZCZC
SA210025 EHGR     GILZE-RIJEN/GILZE-RIJEN   NLD   14 m.
METAR EHGR 210025Z AUTO 17002KT 5000 BR NCD 04/04 Q1030 WHT=

ZCZC
SA210025 EHEH     EINDHOVEN/EINDHOVEN   NLD   22 m.
METAR EHEH 210025Z AUTO 21002KT 6000 BR NCD 03/03 Q1030 WHT=

ZCZC
SA210025 EHVK     VOLKEL/VOLKEL   NLD   21 m.
METAR EHVK 210025Z AUTO 23001KT 8000 BR BKN043 04/04 Q1030 BLU=

ZCZC
SA210025 EHBK     MAASTRICHT/MAASTRICHT-AACHEN   NLD   114 m.
METAR EHBK 210025Z AUTO 17003KT 5000 BR NCD 05/05 Q1030=

ZCZC
SA210025 EHFZ     F16-A   NLD   43 m.
METAR EHFZ 210025Z AUTO 22013KT 9999 BKN034 15/12 Q1027 W///H///=

ZCZC
SA210025 EHKV     K14-FA-1C   NLD   41 m.
METAR EHKV 210025Z AUTO 22015KT 9999 FEW042 15/13 Q1028 W///H///=

ZCZC
SA210025 EHMG     L9-FF-1   NLD   44 m.
METAR EHMG 210025Z AUTO 24016KT 9999 FEW044 15/13 Q1028 W///H///=

ZCZC
SA210025 EHMA     AWG-1   NLD   40 m.
METAR EHMA 210025Z AUTO 21011KT 8000 OVC047 13/11 Q1028 W///H///=

ZCZC
SA210025 EHDV     D15-FA-1   NLD   42 m.
METAR EHDV 210025Z AUTO 24011KT 9999 NSC 14/12 Q1026 W///H///=

ZCZC
SA210025 EHAK     A12-CPP   NLD   48 m.
METAR EHAK 210025Z AUTO 23020KT 9999 SCT019/// SCT024/// 14/12 Q1025
W///H///=

ZCZC
SA210025 EHQE     HOORN-A   NLD   50 m.
METAR EHQE 210025Z AUTO 19017KT 9999 NSC 15/12 Q1028 W///H///=

ZCZC
SA210025 EHJA     J6-A   NLD   45 m.
METAR EHJA 210025Z AUTO 22011KT 9999 NCD 15/12 Q1027 W///H///=

ZCZC
SA210025 EHPG     P11-B   NLD   41 m.
METAR EHPG 210025Z AUTO 21014KT 9999 NSC 15/11 Q1029 W///H///=

ZCZC
SA210025 EHHW     BUITENGAATS/BG-OHVS2      42 m.
METAR EHHW 210025Z AUTO 26008KT 210V290 //// // FEW012/// SCT019///
OVC041/// 15/12 Q1027 RE// W///H///=

ZCZC
SA210025 EHFS     VLISSINGEN AWS   NLD   8 m.
METAR EHFS 210025Z AUTO 21008KT 9999 NSC 13/09 Q1030 W///H///=

21/10/2018 02.45 uur LT